Time;durP1;ratioP1;P1;durP2;ratioP2;P2;SDS_P1;SDS_P2;PMS_P1;PMS_P2;Temp;Humidity;BMP_temperature;BMP_pressure;BME280_temperature;BME280_humidity;BME280_pressure;Samples;Min_cycle;Max_cycle;Signal;HPM_P1;HPM_P2
2023/07/05 00:01:20;;;;;;;0.97;0.90;;;;;;;19.14;76.39;99539.22;5114016;28;20047;-64
2023/07/05 00:03:51;;;;;;;1.52;1.42;;;;;;;19.06;76.43;99538.66;5114334;28;20135;-64
2023/07/05 00:06:20;;;;;;;1.67;0.93;;;;;;;19.06;76.52;99536.06;5113864;28;20052;-64
2023/07/05 00:08:49;;;;;;;1.30;1.20;;;;;;;19.03;76.58;99526.69;5114189;28;20142;-64
2023/07/05 00:11:18;;;;;;;0.85;0.85;;;;;;;18.99;76.57;99544.97;5112772;28;20505;-64
2023/07/05 00:13:47;;;;;;;1.45;1.20;;;;;;;18.96;76.61;99540.75;5114205;28;20050;-64
2023/07/05 00:16:16;;;;;;;0.95;0.85;;;;;;;18.92;76.38;99534.00;5113733;28;20035;-64
2023/07/05 00:18:47;;;;;;;;;;;;;;;18.87;76.83;99541.09;5114604;28;20391;-64
2023/07/05 00:21:16;;;;;;;0.90;0.85;;;;;;;18.80;76.85;99529.28;5113869;28;19919;-64
2023/07/05 00:23:47;;;;;;;1.10;1.00;;;;;;;18.77;76.72;99542.31;5113764;28;20122;-64
2023/07/05 00:26:16;;;;;;;1.92;1.23;;;;;;;18.73;76.90;99533.84;5114078;28;20048;-64
2023/07/05 00:28:44;;;;;;;1.87;1.20;;;;;;;18.70;76.97;99523.59;5113842;28;20114;-64
2023/07/05 00:31:13;;;;;;;1.10;1.00;;;;;;;18.63;77.04;99523.88;5112821;28;20040;-64
2023/07/05 00:33:42;;;;;;;1.35;1.25;;;;;;;18.64;77.13;99531.56;5114857;28;20093;-64
2023/07/05 00:36:12;;;;;;;0.80;0.80;;;;;;;18.63;77.34;99522.16;5117715;28;20047;-64
2023/07/05 00:38:41;;;;;;;9.88;1.55;;;;;;;18.54;77.48;99525.06;5116417;28;20048;-64
2023/07/05 00:41:11;;;;;;;0.77;0.77;;;;;;;18.47;77.66;99525.31;5117679;28;20036;-64
2023/07/05 00:43:39;;;;;;;1.58;1.05;;;;;;;18.50;77.89;99515.72;5116403;28;20115;-64
2023/07/05 00:46:18;;;;;;;7.68;2.67;;;;;;;18.53;77.95;99518.19;5116277;28;20039;-64
2023/07/05 00:48:54;;;;;;;0.93;0.90;;;;;;;18.52;77.92;99508.75;5117416;28;20109;-64
2023/07/05 00:51:29;;;;;;;3.03;1.80;;;;;;;18.54;77.80;99506.97;5117378;28;20048;-64
2023/07/05 00:54:02;;;;;;;0.85;0.85;;;;;;;18.56;77.87;99510.34;5116352;28;20093;-64
2023/07/05 00:56:38;;;;;;;2.60;1.88;;;;;;;18.58;77.64;99505.94;5117283;28;20055;-64
2023/07/05 00:59:11;;;;;;;2.58;0.95;;;;;;;18.57;77.80;99512.00;5117523;28;20052;-64
2023/07/05 01:01:42;;;;;;;2.58;1.73;;;;;;;18.46;77.91;99514.13;5117485;28;20449;-64
2023/07/05 01:04:31;;;;;;;1.33;1.23;;;;;;;18.45;78.02;99512.41;5117496;28;20535;-64
2023/07/05 01:07:02;;;;;;;1.25;1.15;;;;;;;18.48;78.04;99517.50;5117171;28;20058;-64
2023/07/05 01:09:32;;;;;;;1.70;1.50;;;;;;;18.41;78.27;99510.84;5116892;28;20051;-64
2023/07/05 01:12:13;;;;;;;0.90;0.90;;;;;;;18.33;78.44;99512.84;5117344;28;20509;-64
2023/07/05 01:14:52;;;;;;;1.63;1.02;;;;;;;18.23;78.83;99514.06;5115881;28;20054;-64
2023/07/05 01:17:30;;;;;;;1.07;1.00;;;;;;;18.14;78.97;99516.13;5117021;28;20055;-64
2023/07/05 01:20:18;;;;;;;1.58;1.35;;;;;;;18.08;79.29;99512.84;5117166;28;20280;-64
2023/07/05 01:23:16;;;;;;;3.53;1.33;;;;;;;18.05;79.42;99506.94;5116885;28;20040;-64
2023/07/05 01:26:05;;;;;;;1.35;1.23;;;;;;;18.02;79.40;99499.28;5116823;28;20039;-64
2023/07/05 01:28:59;;;;;;;2.15;0.82;;;;;;;17.88;79.48;99504.06;5116586;28;20052;-64
2023/07/05 01:31:48;;;;;;;0.80;0.80;;;;;;;17.73;79.75;99509.75;5116665;28;20048;-64
2023/07/05 01:34:25;;;;;;;1.73;1.02;;;;;;;17.72;80.27;99500.31;5116654;28;20109;-64
2023/07/05 01:36:54;;;;;;;1.25;1.10;;;;;;;17.82;80.27;99499.13;5115465;28;20054;-64
2023/07/05 01:39:24;;;;;;;1.33;1.05;;;;;;;17.90;80.20;99497.13;5116737;28;20035;-64
2023/07/05 01:41:53;;;;;;;2.60;1.27;;;;;;;17.97;79.87;99493.47;5116384;28;20047;-64
2023/07/05 01:44:22;;;;;;;3.00;1.93;;;;;;;18.00;79.97;99493.31;5116766;27;20118;-64
2023/07/05 01:47:00;;;;;;;12.93;1.10;;;;;;;18.03;79.78;99493.22;5115576;28;20296;-64
2023/07/05 01:49:38;;;;;;;1.85;1.20;;;;;;;18.05;79.75;99494.03;5116612;28;20047;-64
2023/07/05 01:52:16;;;;;;;0.73;0.73;;;;;;;17.98;79.53;99495.97;5115058;28;20093;-64
2023/07/05 01:55:00;;;;;;;0.98;0.90;;;;;;;17.97;79.69;99493.47;5116241;28;20044;-64
2023/07/05 01:57:36;;;;;;;6.20;0.90;;;;;;;18.03;79.68;99503.56;5115068;28;20413;-64
2023/07/05 02:00:09;;;;;;;0.80;0.80;;;;;;;18.03;79.37;99498.41;5114912;28;20045;-64
2023/07/05 02:02:45;;;;;;;2.25;1.65;;;;;;;18.06;79.17;99500.88;5116096;28;20089;-64
2023/07/05 02:05:17;;;;;;;0.90;0.88;;;;;;;18.09;79.11;99498.22;5116338;27;20465;-64
2023/07/05 02:07:46;;;;;;;3.38;1.77;;;;;;;18.06;78.84;99495.72;5115114;28;20048;-64
2023/07/05 02:10:15;;;;;;;3.17;1.38;;;;;;;18.06;78.94;99494.00;5116015;28;20044;-64
2023/07/05 02:12:44;;;;;;;2.10;1.45;;;;;;;18.04;78.82;99500.09;5114807;28;20039;-64
2023/07/05 02:15:14;;;;;;;1.23;1.13;;;;;;;17.98;78.82;99495.13;5115802;28;20035;-64
2023/07/05 02:17:44;;;;;;;0.68;0.68;;;;;;;17.94;78.99;99486.66;5115807;28;20048;-64
2023/07/05 02:20:13;;;;;;;1.90;1.10;;;;;;;17.91;79.00;99491.06;5115710;28;20043;-64
2023/07/05 02:22:42;;;;;;;1.20;1.02;;;;;;;17.93;78.96;99497.88;5115884;28;20454;-65
2023/07/05 02:25:11;;;;;;;4.03;1.35;;;;;;;17.88;79.03;99489.44;5115612;28;20039;-65
2023/07/05 02:27:40;;;;;;;1.13;0.82;;;;;;;17.78;79.01;99487.22;5115652;28;20457;-65
2023/07/05 02:30:13;;;;;;;2.03;1.83;;;;;;;17.73;79.34;99483.94;5114609;28;20062;-65
2023/07/05 02:32:46;;;;;;;0.63;0.63;;;;;;;17.72;79.42;99497.72;5115404;28;20054;-65
2023/07/05 02:35:15;;;;;;;4.55;1.70;;;;;;;17.68;79.47;99504.75;5115573;28;20073;-66
2023/07/05 02:37:44;;;;;;;1.60;1.27;;;;;;;17.61;79.82;99500.63;5115652;28;20119;-64
2023/07/05 02:40:15;;;;;;;1.10;0.95;;;;;;;17.62;79.83;99501.50;5115301;28;20036;-64
2023/07/05 02:42:44;;;;;;;;;;;;;;;17.46;79.73;99490.78;5114837;28;20130;-64
2023/07/05 02:45:13;;;;;;;1.05;0.95;;;;;;;17.34;80.32;99499.78;5115228;28;19920;-64
2023/07/05 02:47:42;;;;;;;0.85;0.80;;;;;;;17.23;80.55;99498.38;5115272;28;20093;-64
2023/07/05 02:50:14;;;;;;;1.13;1.05;;;;;;;17.19;80.79;99502.81;5115067;28;20084;-64
2023/07/05 02:52:44;;;;;;;0.80;0.80;;;;;;;17.20;81.32;99499.31;5113772;28;20047;-64
2023/07/05 02:55:13;;;;;;;0.50;0.50;;;;;;;17.24;81.01;99503.53;5115124;28;20500;-64
2023/07/05 02:57:42;;;;;;;1.00;0.90;;;;;;;17.20;81.19;99493.34;5115401;28;20497;-64
2023/07/05 03:00:12;;;;;;;1.42;1.20;;;;;;;17.09;81.10;99487.66;5114421;28;20027;-64
2023/07/05 03:02:42;;;;;;;0.63;0.63;;;;;;;17.09;81.59;99501.38;5115173;28;20116;-64
2023/07/05 03:05:14;;;;;;;0.75;0.73;;;;;;;17.11;81.49;99497.03;5113671;28;20134;-64
2023/07/05 03:07:43;;;;;;;1.25;0.82;;;;;;;17.15;81.47;99496.06;5114859;28;20520;-64
2023/07/05 03:10:11;;;;;;;1.30;1.20;;;;;;;17.20;81.40;99494.16;5113433;28;20036;-64
2023/07/05 03:12:40;;;;;;;0.93;0.70;;;;;;;17.19;81.42;99492.50;5113496;28;20067;-64
2023/07/05 03:15:10;;;;;;;2.78;2.13;;;;;;;17.25;81.50;99489.72;5114705;28;20119;-64
2023/07/05 03:17:39;;;;;;;;;;;;;;;17.37;81.20;99491.91;5115010;27;20063;-64
2023/07/05 03:20:09;;;;;;;3.03;1.63;;;;;;;17.38;80.95;99488.44;5114554;28;19926;-65
2023/07/05 03:22:40;;;;;;;1.73;1.38;;;;;;;17.47;80.88;99497.63;5114854;27;20100;-65
2023/07/05 03:25:10;;;;;;;2.55;1.90;;;;;;;17.54;80.73;99498.34;5114418;28;20048;-65
2023/07/05 03:27:38;;;;;;;4.72;2.65;;;;;;;17.55;80.30;99498.28;5114716;28;20439;-65
2023/07/05 03:30:08;;;;;;;0.63;0.63;;;;;;;17.60;80.16;99504.13;5114526;28;20059;-65
2023/07/05 03:32:39;;;;;;;1.30;1.20;;;;;;;17.69;79.91;99508.16;5113168;28;20085;-64
2023/07/05 03:35:09;;;;;;;1.17;1.08;;;;;;;17.76;79.72;99507.91;5113307;28;20485;-65
2023/07/05 03:37:37;;;;;;;1.30;1.17;;;;;;;17.80;79.73;99508.66;5114289;28;20111;-66
2023/07/05 03:40:09;;;;;;;4.13;1.55;;;;;;;17.85;79.77;99514.53;5114678;28;20092;-66
2023/07/05 03:42:38;;;;;;;1.48;0.95;;;;;;;17.82;79.34;99514.63;5114400;28;20048;-66
2023/07/05 03:45:08;;;;;;;1.10;1.00;;;;;;;17.75;79.83;99507.97;5114133;28;20051;-65
2023/07/05 03:47:37;;;;;;;2.95;2.25;;;;;;;17.80;79.86;99503.50;5114237;28;20051;-65
2023/07/05 03:50:07;;;;;;;0.53;0.53;;;;;;;17.91;79.72;99509.13;5114375;28;20112;-64
2023/07/05 03:52:36;;;;;;;1.17;1.00;;;;;;;17.99;79.45;99509.75;5114408;28;20283;-64
2023/07/05 03:55:05;;;;;;;0.90;0.90;;;;;;;18.01;79.31;99506.22;5114058;28;20062;-64
2023/07/05 03:57:35;;;;;;;;;;;;;;;18.07;79.12;99506.00;5114413;28;20336;-64
2023/07/05 04:00:05;;;;;;;2.15;1.50;;;;;;;18.14;78.79;99509.19;5114050;28;20370;-63
2023/07/05 04:02:39;;;;;;;0.95;0.77;;;;;;;18.21;78.70;99502.91;5114423;28;20039;-64
2023/07/05 04:05:08;;;;;;;0.88;0.88;;;;;;;18.29;78.66;99503.50;5113928;28;20035;-63
2023/07/05 04:07:37;;;;;;;4.97;1.55;;;;;;;18.38;78.36;99505.78;5114212;28;20039;-64
2023/07/05 04:10:08;;;;;;;1.65;1.05;;;;;;;18.46;78.17;99500.38;5118286;28;20130;-63
2023/07/05 04:12:38;;;;;;;;;;;;;;;18.51;77.93;99503.63;5118577;28;20069;-64
2023/07/05 04:15:08;;;;;;;1.08;0.82;;;;;;;18.58;78.11;99507.69;5118164;28;20385;-63
2023/07/05 04:17:37;;;;;;;1.50;1.35;;;;;;;18.65;77.60;99504.81;5118203;27;20051;-64
2023/07/05 04:20:08;;;;;;;2.50;2.30;;;;;;;18.71;77.68;99508.94;5118330;28;20070;-63
2023/07/05 04:22:39;;;;;;;1.77;1.42;;;;;;;18.78;77.58;99509.56;5118313;28;20089;-63
2023/07/05 04:25:09;;;;;;;1.58;1.08;;;;;;;18.84;77.37;99504.13;5118234;28;20132;-64
2023/07/05 04:27:40;;;;;;;1.52;1.42;;;;;;;18.97;77.38;99505.38;5117914;28;20383;-63
2023/07/05 04:30:12;;;;;;;0.77;0.77;;;;;;;19.10;77.05;99506.63;5117865;28;20047;-63
2023/07/05 04:32:41;;;;;;;0.90;0.88;;;;;;;19.14;76.84;99503.00;5117714;28;20047;-64
2023/07/05 04:35:10;;;;;;;1.92;1.20;;;;;;;19.21;76.66;99499.28;5117724;28;20050;-63
2023/07/05 04:37:39;;;;;;;1.90;1.27;;;;;;;19.31;76.49;99500.63;5117681;28;20040;-64
2023/07/05 04:40:08;;;;;;;2.17;1.67;;;;;;;19.40;76.01;99510.63;5117596;28;20268;-63
2023/07/05 04:42:39;;;;;;;1.00;1.00;;;;;;;19.46;75.75;99507.78;5117972;28;20489;-63
2023/07/05 04:45:08;;;;;;;23.15;1.40;;;;;;;19.56;75.70;99506.53;5117886;28;20096;-64
2023/07/05 04:47:37;;;;;;;;;;;;;;;19.67;75.25;99503.53;5117815;28;20044;-63
2023/07/05 04:50:06;;;;;;;0.73;0.73;;;;;;;19.83;75.10;99500.25;5117834;28;20293;-63
2023/07/05 04:52:35;;;;;;;2.38;1.20;;;;;;;19.89;74.63;99499.97;5117296;28;20050;-63
2023/07/05 04:55:05;;;;;;;1.75;1.52;;;;;;;19.92;74.42;99499.00;5117286;28;20044;-63
2023/07/05 04:57:34;;;;;;;0.88;0.88;;;;;;;19.99;74.12;99505.63;5117181;28;20063;-63
2023/07/05 05:00:05;;;;;;;1.27;1.17;;;;;;;20.10;73.82;99502.59;5117315;28;20042;-63
2023/07/05 05:02:34;;;;;;;1.02;0.85;;;;;;;20.21;73.63;99500.38;5117590;27;20268;-64
2023/07/05 05:05:04;;;;;;;1.80;1.30;;;;;;;20.40;73.24;99493.50;5117469;28;20079;-63
2023/07/05 05:07:33;;;;;;;0.60;0.60;;;;;;;20.57;72.94;99494.47;5117067;28;20048;-63
2023/07/05 05:10:03;;;;;;;1.55;1.45;;;;;;;20.70;72.19;99497.38;5117171;28;20512;-64
2023/07/05 05:12:32;;;;;;;1.20;0.88;;;;;;;20.82;71.69;99498.56;5117368;28;20043;-64
2023/07/05 05:15:02;;;;;;;0.65;0.63;;;;;;;20.98;71.14;99500.38;5117893;28;20365;-63
2023/07/05 05:17:32;;;;;;;1.08;0.85;;;;;;;21.03;70.84;99508.81;5117227;28;20071;-64
2023/07/05 05:20:03;;;;;;;0.70;0.70;;;;;;;21.05;70.57;99496.63;5116883;28;20043;-63
2023/07/05 05:22:32;;;;;;;0.70;0.70;;;;;;;21.18;70.79;99495.16;5116872;28;20052;-63
2023/07/05 05:25:01;;;;;;;0.60;0.60;;;;;;;21.30;70.44;99492.00;5116791;28;20039;-63
2023/07/05 05:27:29;;;;;;;0.80;0.80;;;;;;;21.44;69.96;99498.25;5116677;28;20040;-63
2023/07/05 05:29:59;;;;;;;1.55;0.70;;;;;;;21.45;69.44;99497.38;5076044;28;20098;-64
2023/07/05 05:32:28;;;;;;;1.73;1.33;;;;;;;21.42;69.48;99497.50;5075951;28;20041;-64
2023/07/05 05:34:58;;;;;;;1.15;1.05;;;;;;;21.52;69.44;99498.75;5076325;28;20548;-64
2023/07/05 05:37:27;;;;;;;4.93;1.25;;;;;;;21.67;69.15;99496.22;5076211;28;20040;-63
2023/07/05 05:39:56;;;;;;;0.82;0.82;;;;;;;21.80;68.72;99488.69;5075861;28;20048;-64
2023/07/05 05:42:25;;;;;;;1.23;1.10;;;;;;;21.92;68.70;99485.50;5076100;28;20041;-64
2023/07/05 05:44:54;;;;;;;1.20;1.10;;;;;;;22.03;68.09;99498.81;5075878;28;20051;-64
2023/07/05 05:47:23;;;;;;;1.70;1.15;;;;;;;22.04;67.89;99495.31;5074716;28;20132;-64
2023/07/05 05:49:52;;;;;;;1.40;1.17;;;;;;;22.16;67.57;99494.69;5075932;28;20128;-63
2023/07/05 05:52:22;;;;;;;1.13;1.02;;;;;;;22.34;67.44;99498.91;5075545;28;20119;-64
2023/07/05 05:54:51;;;;;;;1.90;1.00;;;;;;;22.55;67.34;99497.84;5075933;28;20131;-64
2023/07/05 05:57:20;;;;;;;0.70;0.70;;;;;;;22.61;66.71;99492.31;5075293;28;20044;-64
2023/07/05 05:59:49;;;;;;;4.22;1.20;;;;;;;22.73;66.48;99495.19;5075712;28;20040;-64
2023/07/05 06:02:17;;;;;;;1.50;1.08;;;;;;;22.88;65.86;99499.59;5075414;28;20041;-63
2023/07/05 06:04:46;;;;;;;0.60;0.60;;;;;;;22.86;65.73;99501.44;5075386;28;20083;-64
2023/07/05 06:07:15;;;;;;;0.98;0.88;;;;;;;22.86;65.87;99485.81;5075378;28;20057;-64
2023/07/05 06:09:48;;;;;;;1.55;1.10;;;;;;;22.86;65.52;99488.41;5075532;28;20086;-63
2023/07/05 06:12:18;;;;;;;0.75;0.70;;;;;;;23.01;65.34;99490.22;5075238;28;20043;-64
2023/07/05 06:14:47;;;;;;;1.48;1.30;;;;;;;23.05;65.24;99491.72;5075197;28;20076;-64
2023/07/05 06:17:16;;;;;;;1.30;1.20;;;;;;;23.24;64.89;99487.16;5075660;28;20411;-64
2023/07/05 06:19:45;;;;;;;1.27;1.08;;;;;;;23.38;64.49;99481.22;5075078;28;20521;-64
2023/07/05 06:22:13;;;;;;;0.70;0.70;;;;;;;23.43;64.37;99490.47;5075066;28;20518;-64
2023/07/05 06:24:43;;;;;;;2.40;1.48;;;;;;;23.51;64.22;99482.22;5075004;28;20132;-64
2023/07/05 06:27:13;;;;;;;2.05;1.50;;;;;;;23.58;63.85;99481.78;5074837;28;20044;-64
2023/07/05 06:29:42;;;;;;;1.20;1.10;;;;;;;23.66;63.60;99476.97;5111742;28;20452;-64
2023/07/05 06:32:11;;;;;;;2.57;0.87;;;;;;;23.68;63.47;99475.09;5114750;28;20032;-64
2023/07/05 06:34:39;;;;;;;6.10;1.17;;;;;;;23.75;63.27;99473.84;5115543;28;20435;-64
2023/07/05 06:37:08;;;;;;;1.35;1.15;;;;;;;23.83;63.05;99473.38;5116042;28;20430;-64
2023/07/05 06:39:37;;;;;;;4.63;1.65;;;;;;;23.95;63.01;99470.91;5115344;28;20143;-64
2023/07/05 06:42:07;;;;;;;1.48;1.38;;;;;;;24.14;62.48;99472.47;5115628;28;20047;-64
2023/07/05 06:44:38;;;;;;;1.10;0.90;;;;;;;24.24;61.99;99466.59;5115184;28;20058;-64
2023/07/05 06:47:06;;;;;;;1.23;1.13;;;;;;;24.37;61.39;99466.69;5115456;28;20081;-65
2023/07/05 06:49:36;;;;;;;0.90;0.90;;;;;;;24.43;61.43;99468.94;5115094;28;20040;-65
2023/07/05 06:52:07;;;;;;;0.55;0.55;;;;;;;24.56;61.54;99456.81;5103409;27;20292;-65
2023/07/05 06:54:37;;;;;;;1.20;1.10;;;;;;;24.69;60.92;99462.94;5094604;28;20051;-65
2023/07/05 06:57:06;;;;;;;1.58;1.05;;;;;;;24.73;60.94;99459.25;5094513;28;20074;-65
2023/07/05 06:59:37;;;;;;;1.63;1.33;;;;;;;24.87;60.83;99467.06;5093403;28;20139;-66
2023/07/05 07:02:06;;;;;;;1.27;1.17;;;;;;;24.83;61.16;99464.75;5094810;28;20494;-67
2023/07/05 07:04:35;;;;;;;2.35;1.73;;;;;;;24.85;61.49;99468.09;5094359;28;20050;-65
2023/07/05 07:07:05;;;;;;;4.57;0.90;;;;;;;24.93;61.66;99471.91;5094722;28;20486;-65
2023/07/05 07:09:35;;;;;;;1.60;0.80;;;;;;;24.96;61.16;99471.72;5094381;28;20553;-65
2023/07/05 07:12:08;;;;;;;2.15;1.10;;;;;;;25.03;61.06;99462.56;5094338;28;20044;-66
2023/07/05 07:14:39;;;;;;;0.55;0.50;;;;;;;25.11;61.18;99460.31;5094493;28;20097;-65
2023/07/05 07:17:07;;;;;;;1.52;0.82;;;;;;;25.18;60.65;99461.59;5094268;28;20498;-66
2023/07/05 07:19:36;;;;;;;1.13;0.90;;;;;;;25.28;60.67;99460.06;5094264;28;20429;-66
2023/07/05 07:22:06;;;;;;;2.88;1.92;;;;;;;25.46;61.16;99465.09;5094177;28;20044;-66
2023/07/05 07:24:35;;;;;;;1.73;1.55;;;;;;;25.62;61.29;99460.53;5094188;28;20051;-66
2023/07/05 07:27:04;;;;;;;0.40;0.40;;;;;;;25.71;60.71;99457.28;5094542;28;20044;-66
2023/07/05 07:29:34;;;;;;;2.15;1.95;;;;;;;25.74;60.23;99457.09;5093917;28;20502;-66
2023/07/05 07:32:08;;;;;;;1.88;1.52;;;;;;;25.81;60.23;99459.22;5093872;28;20548;-66
2023/07/05 07:34:37;;;;;;;0.50;0.50;;;;;;;25.91;60.41;99449.78;5093981;28;20043;-66
2023/07/05 07:37:06;;;;;;;0.73;0.73;;;;;;;25.90;59.50;99455.13;5094125;28;20032;-66
2023/07/05 07:39:35;;;;;;;2.97;1.45;;;;;;;25.87;59.31;99457.94;5093920;28;20506;-66
2023/07/05 07:42:04;;;;;;;0.73;0.60;;;;;;;25.83;59.12;99451.25;5093761;28;20494;-66
2023/07/05 07:44:33;;;;;;;;;;;;;;;25.99;58.60;99453.69;5093395;28;20048;-67
2023/07/05 07:47:02;;;;;;;4.07;1.80;;;;;;;26.11;59.05;99450.25;5094228;28;19920;-65
2023/07/05 07:49:32;;;;;;;0.80;0.80;;;;;;;26.27;58.18;99446.50;5093616;28;20048;-66
2023/07/05 07:52:01;;;;;;;1.02;0.93;;;;;;;26.35;58.26;99446.81;5093780;28;20044;-66
2023/07/05 07:54:31;;;;;;;1.35;0.77;;;;;;;26.51;58.60;99447.41;5093767;28;20127;-67
2023/07/05 07:57:00;;;;;;;0.45;0.45;;;;;;;26.58;57.63;99443.44;5093675;28;20056;-67
2023/07/05 07:59:28;;;;;;;0.82;0.82;;;;;;;26.76;57.80;99449.19;5093706;28;20048;-65
2023/07/05 08:01:57;;;;;;;0.95;0.90;;;;;;;26.84;57.41;99448.63;5093796;28;20040;-65
2023/07/05 08:04:28;;;;;;;14.75;1.75;;;;;;;26.85;56.50;99442.47;5093596;28;20044;-65
2023/07/05 08:06:59;;;;;;;0.60;0.60;;;;;;;26.99;56.42;99442.31;5093642;28;20050;-66
2023/07/05 08:09:28;;;;;;;1.15;1.05;;;;;;;27.12;56.36;99438.69;5093899;28;20494;-66
2023/07/05 08:11:57;;;;;;;1.70;0.93;;;;;;;27.21;55.52;99438.00;5093400;28;20048;-67
2023/07/05 08:14:28;;;;;;;1.15;1.05;;;;;;;27.29;54.65;99434.84;5093364;28;20491;-66
2023/07/05 08:16:57;;;;;;;0.70;0.70;;;;;;;27.43;55.00;99442.56;5093762;28;20048;-65
2023/07/05 08:19:26;;;;;;;7.53;2.15;;;;;;;27.48;54.66;99440.44;5093356;28;20032;-65
2023/07/05 08:21:54;;;;;;;1.60;1.23;;;;;;;27.62;54.91;99445.50;5094029;28;20127;-66
2023/07/05 08:24:25;;;;;;;1.30;0.95;;;;;;;27.61;54.48;99443.00;5092430;28;20044;-65
2023/07/05 08:26:56;;;;;;;1.70;1.10;;;;;;;27.52;54.63;99441.88;5094010;28;20386;-65
2023/07/05 08:29:24;;;;;;;;;;;;;;;27.53;53.46;99443.56;5093383;28;20044;-66
2023/07/05 08:31:53;;;;;;;3.43;0.60;;;;;;;27.45;53.52;99440.66;5093325;28;20007;-66
2023/07/05 08:34:22;;;;;;;1.50;1.00;;;;;;;27.65;54.04;99440.03;5093391;28;20395;-66
2023/07/05 08:36:51;;;;;;;2.72;1.48;;;;;;;27.80;53.69;99446.75;5093314;28;20067;-65
2023/07/05 08:39:20;;;;;;;2.13;0.60;;;;;;;27.87;54.08;99447.97;5093267;28;20044;-66
2023/07/05 08:42:01;;;;;;;1.08;1.02;;;;;;;27.96;54.01;99445.59;5093160;28;20040;-66
2023/07/05 08:44:56;;;;;;;0.65;0.65;;;;;;;28.03;54.33;99445.03;5093318;28;20052;-65
2023/07/05 08:47:33;;;;;;;1.05;0.85;;;;;;;28.05;52.69;99444.94;5091620;28;20094;-68
2023/07/05 08:50:15;;;;;;;1.80;1.33;;;;;;;28.09;51.72;99452.47;5093425;28;20489;-65
2023/07/05 08:53:06;;;;;;;1.02;0.70;;;;;;;28.08;51.76;99444.69;5093669;28;20397;-68
2023/07/05 08:55:45;;;;;;;0.82;0.70;;;;;;;28.10;51.58;99448.88;5095529;28;20101;-65
2023/07/05 08:58:19;;;;;;;;;;;;;;;28.01;51.61;99444.31;5097213;28;20044;-65
2023/07/05 09:00:53;;;;;;;0.65;0.65;;;;;;;27.77;51.52;99444.34;5097203;28;19981;-65
2023/07/05 09:03:28;;;;;;;0.85;0.77;;;;;;;27.75;52.15;99443.66;5097147;28;20040;-67
2023/07/05 09:06:10;;;;;;;2.15;0.90;;;;;;;27.89;51.52;99443.44;5096860;28;20043;-66
2023/07/05 09:08:52;;;;;;;1.08;1.02;;;;;;;28.10;51.20;99441.00;5096813;28;20063;-65
2023/07/05 09:11:30;;;;;;;1.05;0.95;;;;;;;28.14;50.96;99437.19;5096585;28;20055;-67
2023/07/05 09:14:13;;;;;;;0.88;0.80;;;;;;;28.29;50.68;99440.44;5096607;28;20109;-64
2023/07/05 09:16:50;;;;;;;0.60;0.60;;;;;;;28.19;50.74;99442.09;5096817;28;20071;-67
2023/07/05 09:19:29;;;;;;;2.22;1.38;;;;;;;28.28;50.03;99430.88;5096519;28;20125;-66
2023/07/05 09:22:04;;;;;;;1.13;0.80;;;;;;;28.47;49.71;99436.38;5096551;28;20052;-67
2023/07/05 09:24:38;;;;;;;1.73;0.70;;;;;;;28.47;48.64;99428.50;5096714;28;20040;-65
2023/07/05 09:27:11;;;;;;;0.50;0.50;;;;;;;28.48;48.31;99428.34;5096688;28;20455;-66
2023/07/05 09:29:47;;;;;;;0.60;0.60;;;;;;;28.62;48.27;99422.06;5096205;28;20134;-66
2023/07/05 09:32:20;;;;;;;0.77;0.77;;;;;;;28.80;47.92;99412.72;5096638;28;20106;-67
2023/07/05 09:34:52;;;;;;;1.70;1.20;;;;;;;29.04;47.78;99416.00;5096183;28;20046;-67
2023/07/05 09:37:23;;;;;;;0.63;0.63;;;;;;;29.17;47.21;99416.69;5096662;28;20123;-66
2023/07/05 09:40:04;;;;;;;0.70;0.70;;;;;;;29.26;46.35;99407.25;5095776;28;20505;-65
2023/07/05 09:42:39;;;;;;;1.30;1.17;;;;;;;29.39;46.40;99415.81;5096109;28;20048;-67
2023/07/05 09:45:13;;;;;;;2.40;1.00;;;;;;;29.48;46.22;99411.56;5095860;28;20044;-65
2023/07/05 09:47:43;;;;;;;1.85;1.67;;;;;;;29.35;46.60;99403.00;5095666;28;20070;-67
2023/07/05 09:50:16;;;;;;;;;;;;;;;29.14;46.41;99411.69;5096152;28;20067;-66
2023/07/05 09:52:48;;;;;;;0.98;0.90;;;;;;;29.07;45.99;99415.75;5095947;28;19920;-66
2023/07/05 09:55:19;;;;;;;1.30;1.20;;;;;;;28.85;46.41;99410.56;5095598;28;20036;-66
2023/07/05 09:57:50;;;;;;;1.23;1.13;;;;;;;28.50;46.85;99399.38;5096126;28;20445;-67
2023/07/05 10:00:32;;;;;;;4.85;0.93;;;;;;;28.37;47.71;99404.72;5095960;28;20123;-64
2023/07/05 10:03:09;;;;;;;0.60;0.60;;;;;;;28.66;47.32;99399.84;5096042;28;20051;-66
2023/07/05 10:05:39;;;;;;;0.77;0.77;;;;;;;29.03;47.67;99400.38;5095519;28;20036;-68
2023/07/05 10:08:17;;;;;;;0.63;0.63;;;;;;;29.04;48.26;99400.22;5095107;28;20109;-66
2023/07/05 10:10:46;;;;;;;1.52;1.42;;;;;;;29.20;48.52;99395.41;5095882;28;20063;-67
2023/07/05 10:13:17;;;;;;;0.60;0.60;;;;;;;29.40;47.46;99406.94;5095718;28;20063;-65
2023/07/05 10:15:51;;;;;;;1.60;1.25;;;;;;;29.50;45.71;99391.22;5095516;28;20040;-70
2023/07/05 10:18:27;;;;;;;2.40;1.55;;;;;;;29.68;45.90;99400.25;5095370;28;20047;-70
2023/07/05 10:20:58;;;;;;;0.95;0.85;;;;;;;29.79;45.87;99405.44;5095671;28;20072;-66
2023/07/05 10:23:30;;;;;;;1.60;1.10;;;;;;;29.78;44.75;99395.88;5095297;28;20078;-67
2023/07/05 10:26:04;;;;;;;1.48;1.38;;;;;;;29.76;44.92;99389.88;5095213;28;20082;-69
2023/07/05 10:28:37;;;;;;;0.65;0.65;;;;;;;29.76;43.96;99382.84;5094959;28;20044;-66
2023/07/05 10:31:26;;;;;;;2.95;0.95;;;;;;;29.70;44.29;99387.78;5095130;28;20032;-64
2023/07/05 10:34:04;;;;;;;;;;;;;;;29.54;44.70;99390.84;5095536;28;20078;-67
2023/07/05 10:36:33;;;;;;;0.47;0.47;;;;;;;29.43;45.45;99385.66;5095005;28;19920;-65
2023/07/05 10:39:04;;;;;;;0.77;0.77;;;;;;;29.34;46.01;99380.31;5095232;28;20119;-64
2023/07/05 10:41:36;;;;;;;1.10;1.00;;;;;;;29.08;46.56;99380.63;5093981;28;20064;-65
2023/07/05 10:44:11;;;;;;;1.63;1.00;;;;;;;29.07;46.67;99386.00;5094861;28;20044;-67
2023/07/05 10:46:42;;;;;;;0.70;0.70;;;;;;;29.42;46.24;99391.06;5094834;28;20136;-66
2023/07/05 10:49:16;;;;;;;0.73;0.70;;;;;;;29.57;45.82;99380.06;5094822;28;20044;-66
2023/07/05 10:51:49;;;;;;;0.40;0.40;;;;;;;29.24;45.95;99388.13;5094981;28;20055;-65
2023/07/05 10:54:27;;;;;;;1.13;1.02;;;;;;;29.06;46.53;99381.69;5094722;28;20503;-70
2023/07/05 10:56:57;;;;;;;5.20;1.10;;;;;;;29.09;46.55;99382.28;5094907;28;20085;-67
2023/07/05 10:59:35;;;;;;;0.73;0.60;;;;;;;29.18;46.77;99384.19;5094694;28;20630;-66
2023/07/05 11:02:22;;;;;;;0.50;0.50;;;;;;;29.48;46.20;99372.13;5094770;28;20101;-65
2023/07/05 11:04:54;;;;;;;0.57;0.57;;;;;;;29.45;46.78;99383.72;5095059;28;20048;-67
2023/07/05 11:07:24;;;;;;;2.00;1.00;;;;;;;29.49;46.55;99368.53;5094803;28;20074;-66
2023/07/05 11:09:53;;;;;;;0.60;0.60;;;;;;;29.53;46.12;99368.16;5094736;28;20048;-66
2023/07/05 11:12:25;;;;;;;0.63;0.63;;;;;;;29.78;46.52;99369.56;5094337;28;20105;-66
2023/07/05 11:14:56;;;;;;;1.13;1.02;;;;;;;29.54;46.69;99356.63;5094462;28;20127;-67
2023/07/05 11:17:34;;;;;;;0.55;0.55;;;;;;;29.53;46.44;99359.41;5094124;28;20056;-67
2023/07/05 11:20:06;;;;;;;0.95;0.80;;;;;;;29.38;46.04;99350.16;5094671;28;20097;-66
2023/07/05 11:22:40;;;;;;;2.42;1.35;;;;;;;29.32;46.01;99345.44;5094506;28;20082;-67
2023/07/05 11:25:11;;;;;;;0.93;0.88;;;;;;;29.47;45.52;99352.00;5094555;28;20090;-68
2023/07/05 11:27:58;;;;;;;1.25;0.98;;;;;;;29.36;45.02;99342.41;5094116;28;20494;-65
2023/07/05 11:30:39;;;;;;;0.80;0.65;;;;;;;29.15;45.07;99344.97;5094150;28;20036;-72
2023/07/05 11:33:22;;;;;;;1.27;1.13;;;;;;;29.24;45.36;99334.69;5094353;28;20047;-66
2023/07/05 11:35:54;;;;;;;1.90;1.13;;;;;;;29.33;45.21;99331.28;5093917;28;20062;-66
2023/07/05 11:38:48;;;;;;;2.05;1.30;;;;;;;29.56;44.90;99327.59;5094239;28;20060;-65
2023/07/05 11:41:32;;;;;;;1.13;0.90;;;;;;;29.90;44.34;99318.50;5094661;28;20490;-67
2023/07/05 11:44:04;;;;;;;1.92;1.20;;;;;;;30.26;44.27;99315.31;5093898;28;20063;-68
2023/07/05 11:46:42;;;;;;;1.65;1.50;;;;;;;30.14;43.40;99319.03;5093669;28;20478;-68
2023/07/05 11:49:37;;;;;;;0.70;0.50;;;;;;;29.83;44.19;99314.72;5093871;28;20093;-67
2023/07/05 11:52:16;;;;;;;1.35;1.00;;;;;;;29.51;44.34;99314.00;5093796;28;20074;-67
2023/07/05 11:55:07;;;;;;;1.38;0.95;;;;;;;29.25;44.95;99312.72;5093931;28;20123;-66
2023/07/05 11:57:41;;;;;;;1.15;1.05;;;;;;;29.47;45.21;99307.31;5089140;28;20126;-66
2023/07/05 12:00:18;;;;;;;0.85;0.70;;;;;;;29.82;44.59;99299.94;5093708;28;20490;-67